Time;durP1;ratioP1;P1;durP2;ratioP2;P2;SDS_P1;SDS_P2;PMS_P1;PMS_P2;Temp;Humidity;BMP_temperature;BMP_pressure;BME280_temperature;BME280_humidity;BME280_pressure;Samples;Min_cycle;Max_cycle;Signal;HPM_P1;HPM_P2
2022/01/25 00:10:03;;;;;;;76.85;36.03;;;;;;;;;;5034186;28;20133;-70
2022/01/25 00:15:47;;;;;;;79.30;36.63;;;;;;;;;;5031918;28;20080;-70
2022/01/25 00:26:25;;;;;;;77.38;36.60;;;;;;;;;;5031918;28;20449;-71
2022/01/25 00:29:04;;;;;;;75.10;35.65;;;;;;;;;;5034059;28;20046;-71
2022/01/25 00:31:31;;;;;;;77.85;37.53;;;;;;;;;;5033143;28;20046;-71
2022/01/25 00:33:57;;;;;;;74.55;35.45;;;;;;;;;;5035352;28;20044;-71
2022/01/25 00:36:24;;;;;;;78.85;37.83;;;;;;;;;;5031856;28;20034;-70
2022/01/25 00:38:51;;;;;;;75.00;36.88;;;;;;;;;;5033105;28;20095;-70
2022/01/25 00:41:17;;;;;;;73.45;36.72;;;;;;;;;;5032537;28;20036;-71
2022/01/25 00:43:44;;;;;;;77.93;36.60;;;;;;;;;;5026368;28;20044;-71
2022/01/25 00:46:11;;;;;;;77.43;37.45;;;;;;;;;;5026903;28;20037;-71
2022/01/25 00:51:23;;;;;;;75.25;35.72;;;;;;;;;;5032341;28;20052;-71
2022/01/25 00:54:02;;;;;;;75.88;35.78;;;;;;;;;;5030999;28;20049;-70
2022/01/25 00:56:32;;;;;;;75.45;35.88;;;;;;;;;;5027762;28;20065;-70
2022/01/25 00:58:59;;;;;;;69.93;34.40;;;;;;;;;;5011165;28;20052;-70
2022/01/25 01:01:26;;;;;;;73.88;35.13;;;;;;;;;;5024574;28;20614;-70
2022/01/25 01:03:52;;;;;;;78.10;37.53;;;;;;;;;;5039570;28;20495;-70
2022/01/25 01:06:18;;;;;;;74.43;36.72;;;;;;;;;;5030218;28;20040;-70
2022/01/25 01:08:44;;;;;;;73.28;36.45;;;;;;;;;;5031369;28;20111;-70
2022/01/25 01:11:15;;;;;;;75.80;35.88;;;;;;;;;;5012907;28;20037;-70
2022/01/25 01:36:03;;;;;;;76.20;36.00;;;;;;;;;;5067332;22;20044;-67
2022/01/25 01:43:37;;;;;;;75.80;34.75;;;;;;;;;;5065195;28;20066;-67
2022/01/25 01:46:27;;;;;;;76.32;37.42;;;;;;;;;;5065462;28;20174;-67
2022/01/25 01:48:57;;;;;;;73.85;35.70;;;;;;;;;;5071135;28;20127;-68
2022/01/25 01:51:30;;;;;;;70.93;35.17;;;;;;;;;;5067980;28;20052;-67
2022/01/25 01:53:56;;;;;;;81.25;37.92;;;;;;;;;;5068433;28;20513;-67
2022/01/25 01:56:23;;;;;;;75.93;36.28;;;;;;;;;;5066013;28;20039;-67
2022/01/25 01:58:51;;;;;;;79.88;37.45;;;;;;;;;;5069912;28;20045;-67
2022/01/25 02:01:17;;;;;;;77.82;37.33;;;;;;;;;;5068268;28;20036;-67
2022/01/25 02:03:44;;;;;;;73.00;36.70;;;;;;;;;;5068084;28;20402;-67
2022/01/25 02:06:10;;;;;;;79.55;37.47;;;;;;;;;;5067352;28;20040;-67
2022/01/25 02:08:36;;;;;;;76.82;36.10;;;;;;;;;;5071349;28;20051;-68
2022/01/25 02:11:02;;;;;;;74.78;35.78;;;;;;;;;;5071678;28;20040;-67
2022/01/25 02:13:28;;;;;;;75.78;37.03;;;;;;;;;;5071018;28;20047;-67
2022/01/25 02:15:56;;;;;;;75.57;36.40;;;;;;;;;;5067328;28;20040;-66
2022/01/25 02:23:41;;;;;;;79.18;36.45;;;;;;;;;;5071463;28;20041;-67
2022/01/25 02:26:08;;;;;;;76.28;36.88;;;;;;;;;;5067288;28;20117;-67
2022/01/25 02:28:35;;;;;;;74.45;34.83;;;;;;;;;;5071750;28;20040;-67
2022/01/25 02:31:01;;;;;;;80.72;37.10;;;;;;;;;;5071580;28;20158;-67
2022/01/25 02:33:28;;;;;;;79.95;37.40;;;;;;;;;;5070947;28;20497;-67
2022/01/25 02:35:54;;;;;;;81.03;35.95;;;;;;;;;;5061734;28;21264;-67
2022/01/25 02:38:22;;;;;;;81.80;37.72;;;;;;;;;;5055775;28;20091;-67
2022/01/25 02:40:49;;;;;;;81.47;38.47;;;;;;;;;;5071063;28;20037;-67
2022/01/25 02:43:17;;;;;;;77.80;36.20;;;;;;;;;;5071732;28;20068;-67
2022/01/25 02:45:46;;;;;;;78.95;36.95;;;;;;;;;;5068560;28;20048;-67
2022/01/25 02:48:30;;;;;;;81.28;36.72;;;;;;;;;;5070054;28;20045;-67
2022/01/25 02:51:05;;;;;;;82.22;37.35;;;;;;;;;;5071522;28;20051;-67
2022/01/25 02:53:31;;;;;;;78.25;37.53;;;;;;;;;;5071063;28;20036;-67
2022/01/25 02:55:57;;;;;;;78.47;36.40;;;;;;;;;;5065323;28;20047;-67
2022/01/25 02:58:23;;;;;;;78.07;35.83;;;;;;;;;;5069463;28;20062;-67
2022/01/25 03:00:49;;;;;;;84.50;39.05;;;;;;;;;;5069634;28;20487;-67
2022/01/25 03:03:15;;;;;;;82.45;37.30;;;;;;;;;;5069450;28;20055;-67
2022/01/25 03:05:42;;;;;;;75.82;36.85;;;;;;;;;;5067883;28;20467;-67
2022/01/25 03:08:11;;;;;;;83.30;37.70;;;;;;;;;;5070158;28;20048;-67
2022/01/25 03:10:40;;;;;;;77.70;36.45;;;;;;;;;;5070677;28;20041;-67
2022/01/25 03:13:08;;;;;;;80.70;37.38;;;;;;;;;;5071868;28;20044;-67
2022/01/25 03:18:25;;;;;;;75.82;35.17;;;;;;;;;;5065101;28;20048;-67
2022/01/25 03:21:00;;;;;;;80.05;37.10;;;;;;;;;;5070902;28;20040;-67
2022/01/25 03:23:28;;;;;;;80.80;37.67;;;;;;;;;;5071177;28;20044;-67
2022/01/25 03:25:54;;;;;;;84.20;37.78;;;;;;;;;;5067894;28;20091;-67
2022/01/25 03:28:21;;;;;;;81.15;37.55;;;;;;;;;;5065575;28;20047;-67
2022/01/25 03:30:47;;;;;;;83.22;38.85;;;;;;;;;;5071411;28;20048;-67
2022/01/25 03:33:14;;;;;;;82.10;37.05;;;;;;;;;;5070439;28;20040;-67
2022/01/25 03:35:40;;;;;;;81.15;37.40;;;;;;;;;;5066414;28;20073;-67
2022/01/25 03:38:06;;;;;;;82.88;37.60;;;;;;;;;;5068443;28;20041;-67
2022/01/25 03:40:32;;;;;;;82.90;37.92;;;;;;;;;;5070761;28;20485;-67
2022/01/25 03:42:59;;;;;;;82.18;37.40;;;;;;;;;;5070834;28;20128;-67
2022/01/25 03:45:31;;;;;;;79.20;36.25;;;;;;;;;;5068083;28;20044;-67
2022/01/25 03:50:44;;;;;;;83.57;36.78;;;;;;;;;;5049488;28;20398;-67
2022/01/25 03:53:11;;;;;;;79.82;36.65;;;;;;;;;;5070421;28;20041;-67
2022/01/25 03:55:38;;;;;;;77.50;35.83;;;;;;;;;;5066251;28;20490;-67
2022/01/25 03:58:04;;;;;;;82.97;36.38;;;;;;;;;;5068636;28;20092;-67
2022/01/25 04:00:31;;;;;;;76.95;35.92;;;;;;;;;;5080954;28;20040;-67
2022/01/25 04:03:05;;;;;;;87.50;38.28;;;;;;;;;;5070765;28;20055;-67
2022/01/25 04:08:10;;;;;;;80.93;35.17;;;;;;;;;;5060777;28;20041;-67
2022/01/25 04:10:36;;;;;;;79.20;35.55;;;;;;;;;;5058343;28;20048;-67
2022/01/25 04:13:03;;;;;;;77.18;36.30;;;;;;;;;;5074206;28;20037;-67
2022/01/25 04:15:29;;;;;;;81.38;36.25;;;;;;;;;;5052637;28;20151;-67
2022/01/25 04:18:03;;;;;;;76.55;35.22;;;;;;;;;;5070154;28;20119;-67
2022/01/25 04:20:33;;;;;;;79.05;35.60;;;;;;;;;;5059793;28;20066;-67
2022/01/25 04:25:44;;;;;;;79.50;35.67;;;;;;;;;;5068420;28;20048;-67
2022/01/25 04:28:10;;;;;;;83.53;36.58;;;;;;;;;;5068159;28;20028;-67
2022/01/25 04:30:36;;;;;;;78.80;34.72;;;;;;;;;;5073962;28;20120;-67
2022/01/25 04:33:17;;;;;;;81.20;36.78;;;;;;;;;;5073328;28;20037;-66
2022/01/25 04:35:56;;;;;;;84.93;36.45;;;;;;;;;;5070808;28;20044;-67
2022/01/25 04:49:25;;;;;;;79.10;36.50;;;;;;;;;;5053742;28;20088;-67
2022/01/25 04:52:08;;;;;;;80.10;35.53;;;;;;;;;;5067673;28;20105;-67
2022/01/25 05:02:19;;;;;;;80.55;35.72;;;;;;;;;;5068967;28;20044;-67
2022/01/25 05:04:53;;;;;;;75.95;35.08;;;;;;;;;;5068230;28;20040;-66
2022/01/25 05:09:52;;;;;;;82.80;34.65;;;;;;;;;;5071426;28;20049;-67
2022/01/25 05:12:28;;;;;;;84.85;36.25;;;;;;;;;;5054492;28;20048;-66
2022/01/25 05:15:01;;;;;;;80.45;35.45;;;;;;;;;;5070362;28;20052;-67
2022/01/25 05:17:38;;;;;;;82.00;36.70;;;;;;;;;;5062022;28;20484;-67
2022/01/25 05:22:51;;;;;;;78.70;34.40;;;;;;;;;;5072648;28;20127;-67
2022/01/25 05:25:17;;;;;;;77.68;33.85;;;;;;;;;;5067711;28;20041;-66
2022/01/25 05:27:43;;;;;;;81.47;35.05;;;;;;;;;;5062518;28;20045;-67
2022/01/25 05:30:09;;;;;;;82.97;34.30;;;;;;;;;;5053037;28;20071;-67
2022/01/25 05:32:35;;;;;;;80.75;34.50;;;;;;;;;;5069532;28;20491;-66
2022/01/25 05:35:02;;;;;;;80.55;35.13;;;;;;;;;;5068839;28;20045;-67
2022/01/25 05:37:28;;;;;;;76.82;34.40;;;;;;;;;;5070434;28;20044;-66
2022/01/25 05:39:54;;;;;;;85.72;36.20;;;;;;;;;;5072358;28;20037;-66
2022/01/25 05:42:41;;;;;;;78.13;34.72;;;;;;;;;;5072455;28;20067;-67
2022/01/25 05:45:18;;;;;;;78.47;35.35;;;;;;;;;;5067532;28;20089;-67
2022/01/25 05:47:44;;;;;;;82.15;35.90;;;;;;;;;;5063396;28;20055;-67
2022/01/25 05:50:13;;;;;;;79.55;35.53;;;;;;;;;;5071304;28;20040;-67
2022/01/25 05:52:39;;;;;;;81.38;35.72;;;;;;;;;;5069760;28;20075;-67
2022/01/25 05:55:06;;;;;;;79.30;35.00;;;;;;;;;;5067509;28;20448;-67
2022/01/25 05:57:32;;;;;;;77.03;34.78;;;;;;;;;;5072619;28;20033;-67
2022/01/25 05:59:58;;;;;;;82.78;34.92;;;;;;;;;;5069822;28;20093;-67
2022/01/25 06:02:27;;;;;;;82.45;35.58;;;;;;;;;;5070392;28;20505;-66
2022/01/25 06:04:53;;;;;;;79.53;34.65;;;;;;;;;;5066262;28;20167;-66
2022/01/25 06:07:19;;;;;;;82.63;36.10;;;;;;;;;;5069811;28;20127;-66
2022/01/25 06:09:47;;;;;;;78.57;34.45;;;;;;;;;;5071053;28;20123;-66
2022/01/25 06:12:13;;;;;;;78.10;35.15;;;;;;;;;;5072137;28;20047;-67
2022/01/25 06:14:39;;;;;;;76.65;33.85;;;;;;;;;;5069970;28;20039;-67
2022/01/25 06:17:06;;;;;;;81.47;35.17;;;;;;;;;;5065958;28;20175;-66
2022/01/25 06:19:32;;;;;;;78.93;35.45;;;;;;;;;;5071980;28;20047;-66
2022/01/25 06:21:58;;;;;;;82.65;35.22;;;;;;;;;;5071839;28;20036;-67
2022/01/25 06:24:24;;;;;;;84.15;36.25;;;;;;;;;;5070034;28;20076;-67
2022/01/25 06:26:50;;;;;;;75.90;35.03;;;;;;;;;;5070627;28;20044;-67
2022/01/25 06:29:18;;;;;;;78.50;36.00;;;;;;;;;;5070893;28;20037;-66
2022/01/25 06:31:47;;;;;;;81.38;34.60;;;;;;;;;;5068496;28;20076;-67
2022/01/25 06:34:13;;;;;;;83.57;34.42;;;;;;;;;;5070483;28;20115;-67
2022/01/25 06:36:39;;;;;;;84.00;37.65;;;;;;;;;;5069594;28;20193;-67
2022/01/25 06:39:05;;;;;;;82.35;34.95;;;;;;;;;;5071862;28;20544;-67
2022/01/25 06:41:33;;;;;;;82.78;36.13;;;;;;;;;;5071242;28;20045;-67
2022/01/25 06:43:59;;;;;;;84.70;34.65;;;;;;;;;;5071046;28;20044;-67
2022/01/25 06:46:25;;;;;;;78.55;34.90;;;;;;;;;;5062635;28;20460;-67
2022/01/25 06:48:51;;;;;;;83.40;36.58;;;;;;;;;;5070799;28;20048;-67
2022/01/25 06:51:17;;;;;;;78.55;33.92;;;;;;;;;;5069118;28;20040;-67
2022/01/25 06:53:43;;;;;;;82.10;36.95;;;;;;;;;;5064272;28;20036;-67
2022/01/25 06:56:09;;;;;;;78.20;34.90;;;;;;;;;;5057959;28;20041;-67
2022/01/25 06:58:35;;;;;;;80.68;35.03;;;;;;;;;;5067975;28;20051;-67
2022/01/25 07:01:01;;;;;;;83.05;36.67;;;;;;;;;;5067093;28;20056;-67
2022/01/25 07:03:27;;;;;;;81.82;36.03;;;;;;;;;;5070744;28;20044;-66
2022/01/25 07:05:53;;;;;;;80.25;35.58;;;;;;;;;;5069512;28;20079;-67
2022/01/25 07:08:19;;;;;;;79.13;35.17;;;;;;;;;;5066651;28;20067;-67
2022/01/25 07:10:45;;;;;;;81.43;35.88;;;;;;;;;;5070345;28;20045;-67
2022/01/25 07:13:11;;;;;;;81.00;35.63;;;;;;;;;;5064661;28;20402;-67
2022/01/25 07:15:37;;;;;;;79.07;36.13;;;;;;;;;;5065482;28;20094;-67
2022/01/25 07:18:03;;;;;;;78.70;34.85;;;;;;;;;;5067142;28;20031;-67
2022/01/25 07:20:29;;;;;;;83.65;35.40;;;;;;;;;;5070361;28;20033;-66
2022/01/25 07:22:55;;;;;;;76.82;33.80;;;;;;;;;;5052945;28;20037;-66
2022/01/25 07:25:21;;;;;;;84.13;36.33;;;;;;;;;;5068590;28;20072;-67
2022/01/25 07:27:48;;;;;;;81.47;34.75;;;;;;;;;;5071009;28;20045;-67
2022/01/25 07:30:14;;;;;;;82.60;36.47;;;;;;;;;;5070403;28;20036;-67
2022/01/25 07:32:40;;;;;;;82.68;34.20;;;;;;;;;;5066444;28;20033;-67
2022/01/25 07:35:07;;;;;;;87.05;36.00;;;;;;;;;;5077618;22;20085;-70
2022/01/25 07:37:32;;;;;;;76.75;33.60;;;;;;;;;;5053242;28;20128;-71
2022/01/25 07:39:59;;;;;;;82.05;35.95;;;;;;;;;;5070994;28;20060;-69
2022/01/25 07:42:27;;;;;;;83.97;35.22;;;;;;;;;;5053614;28;20044;-70
2022/01/25 07:44:53;;;;;;;82.22;35.30;;;;;;;;;;5066195;28;20051;-70
2022/01/25 07:47:19;;;;;;;80.68;35.67;;;;;;;;;;5050892;28;20053;-69
2022/01/25 07:49:45;;;;;;;82.50;35.47;;;;;;;;;;5074820;28;20379;-69
2022/01/25 07:52:11;;;;;;;78.25;33.78;;;;;;;;;;5074124;28;20060;-69
2022/01/25 07:54:37;;;;;;;81.07;34.58;;;;;;;;;;5072506;28;20044;-69
2022/01/25 07:57:03;;;;;;;83.53;35.20;;;;;;;;;;5071339;28;20081;-69
2022/01/25 07:59:29;;;;;;;84.22;35.08;;;;;;;;;;5067116;28;20044;-70
2022/01/25 08:01:55;;;;;;;83.88;35.45;;;;;;;;;;5054745;28;20434;-70
2022/01/25 08:04:21;;;;;;;83.70;33.63;;;;;;;;;;5055379;28;20037;-70
2022/01/25 08:06:48;;;;;;;81.32;34.55;;;;;;;;;;5071862;28;20041;-70
2022/01/25 08:09:14;;;;;;;77.78;34.42;;;;;;;;;;5069402;28;20044;-70
2022/01/25 08:11:40;;;;;;;88.13;36.42;;;;;;;;;;5074214;28;20036;-69
2022/01/25 08:14:13;;;;;;;82.50;34.25;;;;;;;;;;5073631;28;20181;-69
2022/01/25 08:16:42;;;;;;;87.07;37.45;;;;;;;;;;5063953;28;20080;-69
2022/01/25 08:19:09;;;;;;;82.85;35.00;;;;;;;;;;5065610;28;20418;-69
2022/01/25 08:21:36;;;;;;;81.93;35.03;;;;;;;;;;5061216;28;20415;-70
2022/01/25 08:24:03;;;;;;;80.25;34.45;;;;;;;;;;5063154;28;20041;-71
2022/01/25 08:26:29;;;;;;;79.20;33.83;;;;;;;;;;5070614;28;20095;-69
2022/01/25 08:28:55;;;;;;;78.05;33.70;;;;;;;;;;5074258;28;20040;-69
2022/01/25 08:31:21;;;;;;;78.43;34.97;;;;;;;;;;5074038;28;20125;-70
2022/01/25 08:33:47;;;;;;;80.10;34.22;;;;;;;;;;5072493;28;20036;-71
2022/01/25 08:36:13;;;;;;;81.25;33.90;;;;;;;;;;5070052;28;20048;-72
2022/01/25 08:38:39;;;;;;;81.05;33.03;;;;;;;;;;5073807;28;20041;-72
2022/01/25 08:41:06;;;;;;;76.75;33.08;;;;;;;;;;5074049;28;20044;-72
2022/01/25 08:43:33;;;;;;;82.13;34.08;;;;;;;;;;5073003;28;20039;-71
2022/01/25 08:45:59;;;;;;;86.15;35.83;;;;;;;;;;5071684;28;20044;-72
2022/01/25 08:48:25;;;;;;;76.53;32.65;;;;;;;;;;5073899;28;20037;-72
2022/01/25 08:50:51;;;;;;;81.28;34.20;;;;;;;;;;5071411;28;20040;-70
2022/01/25 08:53:17;;;;;;;78.30;33.17;;;;;;;;;;5073046;28;20036;-71
2022/01/25 08:55:43;;;;;;;82.85;34.63;;;;;;;;;;5070162;28;20113;-72
2022/01/25 08:58:09;;;;;;;78.25;33.38;;;;;;;;;;5073719;28;20477;-72
2022/01/25 09:00:36;;;;;;;82.25;35.13;;;;;;;;;;5072619;28;20040;-72
2022/01/25 09:03:02;;;;;;;77.40;34.03;;;;;;;;;;5070362;28;20111;-72
2022/01/25 09:05:28;;;;;;;80.00;34.78;;;;;;;;;;5070290;28;20511;-72
2022/01/25 09:07:56;;;;;;;80.03;33.35;;;;;;;;;;5073207;28;20468;-72
2022/01/25 09:10:22;;;;;;;78.05;34.13;;;;;;;;;;5071427;28;20040;-72
2022/01/25 09:12:48;;;;;;;85.13;35.35;;;;;;;;;;5072793;28;20049;-72
2022/01/25 09:15:14;;;;;;;80.53;34.50;;;;;;;;;;5068858;28;20501;-71
2022/01/25 09:17:40;;;;;;;86.18;35.00;;;;;;;;;;5072465;28;20460;-72
2022/01/25 09:20:06;;;;;;;79.78;33.97;;;;;;;;;;5067180;28;20033;-72
2022/01/25 09:22:32;;;;;;;80.03;34.75;;;;;;;;;;5052995;28;20072;-72
2022/01/25 09:24:58;;;;;;;73.72;34.70;;;;;;;;;;5067367;28;20089;-72
2022/01/25 09:27:24;;;;;;;79.63;34.17;;;;;;;;;;5072778;28;20040;-72
2022/01/25 09:29:50;;;;;;;84.82;34.67;;;;;;;;;;5052657;28;20089;-72
2022/01/25 09:32:18;;;;;;;80.72;34.30;;;;;;;;;;5073074;28;20097;-72
2022/01/25 09:34:44;;;;;;;77.10;33.63;;;;;;;;;;5068422;28;20093;-72
2022/01/25 09:37:10;;;;;;;80.40;33.28;;;;;;;;;;5072509;28;20036;-72
2022/01/25 09:39:36;;;;;;;79.60;34.78;;;;;;;;;;5051077;28;20058;-72
2022/01/25 09:42:07;;;;;;;79.68;33.10;;;;;;;;;;5072172;28;20170;-72
2022/01/25 09:44:34;;;;;;;82.25;35.00;;;;;;;;;;5071253;28;20508;-72
2022/01/25 09:47:00;;;;;;;82.63;34.25;;;;;;;;;;5068963;28;20071;-72
2022/01/25 09:49:27;;;;;;;80.25;34.92;;;;;;;;;;5071374;28;20059;-72
2022/01/25 09:51:53;;;;;;;83.68;35.65;;;;;;;;;;5071761;28;20163;-72
2022/01/25 09:54:19;;;;;;;80.15;34.10;;;;;;;;;;5070516;28;20040;-72
2022/01/25 09:56:45;;;;;;;81.80;33.85;;;;;;;;;;5068783;28;20036;-73
2022/01/25 09:59:11;;;;;;;83.15;35.15;;;;;;;;;;5037375;28;20167;-73
2022/01/25 10:01:37;;;;;;;77.57;33.30;;;;;;;;;;5066912;28;20040;-73
2022/01/25 10:04:05;;;;;;;83.88;35.45;;;;;;;;;;5036344;28;20044;-73
2022/01/25 10:06:34;;;;;;;79.15;33.05;;;;;;;;;;5065977;28;20048;-73
2022/01/25 10:09:00;;;;;;;75.75;31.60;;;;;;;;;;5059610;28;20040;-73
2022/01/25 10:11:26;;;;;;;79.03;33.47;;;;;;;;;;5039478;28;20045;-73
2022/01/25 10:13:58;;;;;;;78.93;33.47;;;;;;;;;;5051895;28;20044;-72
2022/01/25 10:16:32;;;;;;;82.03;32.83;;;;;;;;;;5062310;28;20076;-73
2022/01/25 10:19:00;;;;;;;77.80;31.63;;;;;;;;;;5071007;28;20100;-72
2022/01/25 10:21:26;;;;;;;81.97;33.78;;;;;;;;;;5058109;28;20083;-72
2022/01/25 10:24:09;;;;;;;88.63;35.45;;;;;;;;;;5071884;28;20032;-72
2022/01/25 10:26:39;;;;;;;81.55;33.22;;;;;;;;;;5070311;28;20068;-72
2022/01/25 10:29:07;;;;;;;79.72;33.65;;;;;;;;;;5071476;28;20090;-72
2022/01/25 10:31:34;;;;;;;84.18;33.28;;;;;;;;;;5065161;28;20163;-73
2022/01/25 10:34:00;;;;;;;78.30;32.42;;;;;;;;;;5046272;28;20040;-71
2022/01/25 10:36:26;;;;;;;81.75;33.35;;;;;;;;;;5069896;28;20032;-72
2022/01/25 10:38:54;;;;;;;83.55;34.78;;;;;;;;;;5071278;28;20052;-72
2022/01/25 10:41:22;;;;;;;80.05;33.15;;;;;;;;;;5067591;28;20041;-72
2022/01/25 10:43:49;;;;;;;77.68;33.42;;;;;;;;;;5060140;28;20146;-72
2022/01/25 10:46:23;;;;;;;82.97;34.20;;;;;;;;;;5067516;28;20387;-72
2022/01/25 10:48:50;;;;;;;77.68;32.65;;;;;;;;;;5068956;28;20151;-72
2022/01/25 10:51:19;;;;;;;78.03;33.15;;;;;;;;;;5071282;28;20036;-72
2022/01/25 10:53:45;;;;;;;79.85;33.67;;;;;;;;;;5070331;28;20035;-72
2022/01/25 10:56:11;;;;;;;83.10;33.28;;;;;;;;;;5042054;28;20076;-72
2022/01/25 10:58:39;;;;;;;81.75;33.75;;;;;;;;;;5064798;28;20684;-72
2022/01/25 11:01:05;;;;;;;84.22;34.63;;;;;;;;;;5060621;28;20069;-72
2022/01/25 11:03:35;;;;;;;78.68;33.17;;;;;;;;;;5071168;28;20036;-72
2022/01/25 11:06:10;;;;;;;76.03;32.60;;;;;;;;;;5068056;28;20059;-72
2022/01/25 11:08:37;;;;;;;80.70;33.00;;;;;;;;;;5071394;28;20127;-72
2022/01/25 11:11:06;;;;;;;81.53;34.25;;;;;;;;;;5069087;28;20040;-72
2022/01/25 11:16:00;;;;;;;86.13;34.78;;;;;;;;;;5069383;28;20486;-72
2022/01/25 11:18:27;;;;;;;77.43;32.25;;;;;;;;;;5075452;28;20573;-72
2022/01/25 11:20:54;;;;;;;71.82;32.55;;;;;;;;;;5071241;28;20040;-71
2022/01/25 11:23:20;;;;;;;83.13;33.65;;;;;;;;;;5070332;28;20041;-72
2022/01/25 11:25:48;;;;;;;80.18;33.53;;;;;;;;;;5067856;28;20048;-72
2022/01/25 11:28:14;;;;;;;82.93;32.92;;;;;;;;;;5074975;28;20051;-72
2022/01/25 11:30:40;;;;;;;73.15;32.92;;;;;;;;;;5061739;28;20524;-72
2022/01/25 11:33:09;;;;;;;79.22;34.78;;;;;;;;;;5072525;28;20067;-72
2022/01/25 11:35:35;;;;;;;81.05;34.00;;;;;;;;;;5065564;28;20139;-72
2022/01/25 11:38:01;;;;;;;80.68;32.78;;;;;;;;;;5074638;28;20116;-72
2022/01/25 11:40:38;;;;;;;79.35;32.55;;;;;;;;;;5073615;28;20520;-72
2022/01/25 11:43:06;;;;;;;78.15;33.03;;;;;;;;;;5056900;28;20111;-72
2022/01/25 11:45:34;;;;;;;80.60;32.83;;;;;;;;;;5066081;28;20041;-72
2022/01/25 11:48:00;;;;;;;77.88;32.85;;;;;;;;;;5065383;28;20045;-72
2022/01/25 11:50:30;;;;;;;77.78;33.80;;;;;;;;;;5068077;28;20115;-72
2022/01/25 11:53:05;;;;;;;76.18;33.28;;;;;;;;;;5055214;28;20036;-72
2022/01/25 11:55:34;;;;;;;78.80;32.67;;;;;;;;;;5061270;28;20044;-72
2022/01/25 11:58:03;;;;;;;79.45;33.15;;;;;;;;;;5061870;28;20048;-71
2022/01/25 12:00:48;;;;;;;76.40;31.90;;;;;;;;;;5064692;28;20110;-71
2022/01/25 12:03:23;;;;;;;85.78;34.38;;;;;;;;;;5054998;28;20043;-71
2022/01/25 12:05:55;;;;;;;81.18;32.83;;;;;;;;;;5051302;28;20131;-71
2022/01/25 12:08:29;;;;;;;83.00;34.05;;;;;;;;;;5072699;28;20115;-71
2022/01/25 12:11:05;;;;;;;84.03;33.17;;;;;;;;;;5059874;28;20037;-71
2022/01/25 12:13:31;;;;;;;78.40;33.33;;;;;;;;;;5074440;28;20810;-71
2022/01/25 12:16:16;;;;;;;79.80;31.73;;;;;;;;;;5072101;28;20078;-72
2022/01/25 12:18:52;;;;;;;78.32;31.67;;;;;;;;;;5060492;28;20040;-72
2022/01/25 12:21:38;;;;;;;77.72;32.67;;;;;;;;;;5073701;28;20041;-71
2022/01/25 12:24:24;;;;;;;80.60;32.63;;;;;;;;;;5070337;28;20040;-71
2022/01/25 12:26:57;;;;;;;83.15;32.50;;;;;;;;;;5071334;28;20040;-71
2022/01/25 12:29:33;;;;;;;79.80;32.85;;;;;;;;;;5072146;28;20039;-70
2022/01/25 12:32:18;;;;;;;80.70;32.83;;;;;;;;;;5054001;28;20041;-71
2022/01/25 12:35:19;;;;;;;78.30;31.88;;;;;;;;;;5061234;28;20044;-71
2022/01/25 12:37:46;;;;;;;85.75;33.22;;;;;;;;;;4983853;28;20045;-70
2022/01/25 12:40:30;;;;;;;76.13;30.77;;;;;;;;;;5054445;28;20052;-71
2022/01/25 12:42:56;;;;;;;80.80;30.42;;;;;;;;;;5054458;28;20444;-71
2022/01/25 12:45:23;;;;;;;77.07;32.00;;;;;;;;;;5067030;28;20083;-71
2022/01/25 12:47:53;;;;;;;78.15;30.85;;;;;;;;;;5072733;28;20052;-71
2022/01/25 12:50:19;;;;;;;75.07;31.75;;;;;;;;;;5067176;28;20098;-71
2022/01/25 12:52:46;;;;;;;77.70;31.73;;;;;;;;;;5053446;28;20441;-71
2022/01/25 12:55:12;;;;;;;77.88;31.70;;;;;;;;;;5069551;28;20524;-71
2022/01/25 12:57:38;;;;;;;76.60;32.35;;;;;;;;;;5072902;28;20067;-71
2022/01/25 13:00:06;;;;;;;77.07;32.17;;;;;;;;;;5068816;28;20033;-71
2022/01/25 13:02:32;;;;;;;78.22;30.63;;;;;;;;;;5053532;28;20037;-71
2022/01/25 13:04:58;;;;;;;75.88;31.65;;;;;;;;;;5066278;28;20516;-71
2022/01/25 13:07:24;;;;;;;78.45;31.60;;;;;;;;;;5057987;28;20118;-71
2022/01/25 13:09:54;;;;;;;87.60;34.25;;;;;;;;;;5063427;28;20052;-71
2022/01/25 13:12:29;;;;;;;75.10;31.38;;;;;;;;;;5060374;28;20406;-71
2022/01/25 13:15:27;;;;;;;77.60;30.80;;;;;;;;;;5039848;28;20041;-71
2022/01/25 13:17:50;;;;;;;77.28;30.95;;;;;;;;;;5067169;28;20403;-71
2022/01/25 13:20:21;;;;;;;80.05;31.15;;;;;;;;;;5035434;28;20033;-71
2022/01/25 13:22:47;;;;;;;81.45;31.13;;;;;;;;;;5060055;28;20041;-71
2022/01/25 13:27:56;;;;;;;79.00;31.38;;;;;;;;;;5065195;28;20055;-71
2022/01/25 13:30:45;;;;;;;81.10;30.77;;;;;;;;;;5071031;28;20560;-71
2022/01/25 13:33:17;;;;;;;75.50;30.15;;;;;;;;;;5065640;28;20048;-71
2022/01/25 13:35:49;;;;;;;76.93;30.67;;;;;;;;;;5089308;22;20040;-65
2022/01/25 13:38:16;;;;;;;72.80;29.40;;;;;;;;;;5090977;28;20036;-65
2022/01/25 13:41:04;;;;;;;81.43;32.63;;;;;;;;;;5077673;28;20514;-65
2022/01/25 13:46:22;;;;;;;80.10;31.75;;;;;;;;;;5066495;28;20036;-65
2022/01/25 13:48:48;;;;;;;75.72;31.00;;;;;;;;;;5072037;28;20044;-65
2022/01/25 13:51:16;;;;;;;75.45;29.85;;;;;;;;;;5071808;28;20090;-65
2022/01/25 13:53:43;;;;;;;77.57;30.83;;;;;;;;;;5089139;28;20043;-65
2022/01/25 13:56:14;;;;;;;76.43;31.58;;;;;;;;;;5067546;28;20136;-65
2022/01/25 13:58:41;;;;;;;77.65;31.30;;;;;;;;;;5072166;28;20032;-65
2022/01/25 14:01:09;;;;;;;76.20;29.92;;;;;;;;;;5073596;28;20039;-65
2022/01/25 14:03:37;;;;;;;78.28;30.92;;;;;;;;;;5084627;28;20044;-65
2022/01/25 14:06:18;;;;;;;74.72;30.42;;;;;;;;;;5078071;28;20226;-65
2022/01/25 14:08:44;;;;;;;74.57;29.35;;;;;;;;;;5084916;28;20068;-65
2022/01/25 14:11:54;;;;;;;75.13;30.40;;;;;;;;;;5078224;28;20064;-65
2022/01/25 14:25:09;;;;;;;76.13;30.25;;;;;;;;;;5072066;28;20037;-65
2022/01/25 14:27:49;;;;;;;73.43;29.77;;;;;;;;;;5071023;28;20551;-65
2022/01/25 14:30:15;;;;;;;73.22;30.20;;;;;;;;;;5069453;28;20036;-65
2022/01/25 14:32:41;;;;;;;80.35;31.63;;;;;;;;;;5068849;28;20040;-65
2022/01/25 14:35:09;;;;;;;73.28;30.63;;;;;;;;;;5066744;28;20060;-66
2022/01/25 14:37:40;;;;;;;72.22;30.58;;;;;;;;;;5072471;28;20036;-65
2022/01/25 14:40:11;;;;;;;76.20;31.25;;;;;;;;;;5068460;28;20066;-66
2022/01/25 14:42:38;;;;;;;78.35;31.95;;;;;;;;;;5067784;28;20503;-66
2022/01/25 14:45:05;;;;;;;76.30;31.10;;;;;;;;;;5066504;28;20086;-66
2022/01/25 14:47:36;;;;;;;76.53;30.88;;;;;;;;;;5067837;28;20044;-66
2022/01/25 14:50:04;;;;;;;73.30;29.63;;;;;;;;;;5079543;28;20052;-66
2022/01/25 14:52:30;;;;;;;71.70;29.45;;;;;;;;;;5089902;28;20466;-66
2022/01/25 14:54:56;;;;;;;79.93;30.90;;;;;;;;;;5082523;28;20039;-65
2022/01/25 14:57:26;;;;;;;71.50;29.15;;;;;;;;;;5066408;28;20537;-66
2022/01/25 14:59:52;;;;;;;73.63;29.15;;;;;;;;;;5072504;28;20040;-66
2022/01/25 15:02:19;;;;;;;75.07;30.17;;;;;;;;;;5084117;28;20036;-66
2022/01/25 15:04:47;;;;;;;78.65;33.60;;;;;;;;;;5087417;28;20514;-66
2022/01/25 15:07:15;;;;;;;86.13;32.13;;;;;;;;;;5070602;28;20039;-66
2022/01/25 15:09:49;;;;;;;78.57;31.10;;;;;;;;;;5071604;28;20044;-66
2022/01/25 15:12:19;;;;;;;81.18;31.95;;;;;;;;;;5069930;28;20036;-66
2022/01/25 15:14:53;;;;;;;77.75;31.73;;;;;;;;;;5069784;28;20044;-66
2022/01/25 15:17:19;;;;;;;78.38;31.27;;;;;;;;;;5067779;28;20118;-65
2022/01/25 15:19:45;;;;;;;77.45;30.50;;;;;;;;;;5067019;28;20037;-66
2022/01/25 15:22:12;;;;;;;85.63;32.17;;;;;;;;;;5064822;28;20033;-66
2022/01/25 15:24:41;;;;;;;79.13;30.88;;;;;;;;;;5070512;28;20068;-65
2022/01/25 15:27:08;;;;;;;78.65;31.55;;;;;;;;;;5070515;28;20048;-66
2022/01/25 15:29:36;;;;;;;75.88;30.88;;;;;;;;;;5074206;28;20036;-66
2022/01/25 15:32:02;;;;;;;79.32;29.88;;;;;;;;;;5075380;28;20047;-66
2022/01/25 15:34:32;;;;;;;72.70;29.75;;;;;;;;;;5081564;28;20050;-66
2022/01/25 15:36:58;;;;;;;80.30;30.65;;;;;;;;;;5069603;28;20041;-66
2022/01/25 15:39:24;;;;;;;75.35;29.67;;;;;;;;;;5066468;28;20033;-66
2022/01/25 15:41:55;;;;;;;79.15;30.70;;;;;;;;;;5069902;28;20108;-66
2022/01/25 15:44:21;;;;;;;75.70;30.50;;;;;;;;;;5069242;28;20032;-66
2022/01/25 15:49:16;;;;;;;83.50;34.95;;;;;;;;;;5068744;28;20490;-66
2022/01/25 15:51:43;;;;;;;78.95;31.13;;;;;;;;;;5071035;28;20062;-66
2022/01/25 15:54:12;;;;;;;78.68;32.90;;;;;;;;;;5065546;28;20436;-66
2022/01/25 15:56:39;;;;;;;77.00;30.80;;;;;;;;;;5066809;28;20117;-64
2022/01/25 15:59:05;;;;;;;75.82;30.73;;;;;;;;;;5074313;28;20028;-66
2022/01/25 16:01:30;;;;;;;78.47;31.92;;;;;;;;;;5068457;28;20033;-66
2022/01/25 16:03:56;;;;;;;75.90;31.27;;;;;;;;;;5071525;28;20051;-66
2022/01/25 16:06:24;;;;;;;70.75;30.05;;;;;;;;;;5071291;28;20078;-66
2022/01/25 16:08:50;;;;;;;76.38;31.33;;;;;;;;;;5074332;28;20098;-66
2022/01/25 16:11:18;;;;;;;74.15;31.65;;;;;;;;;;5073445;28;20490;-66
2022/01/25 16:13:48;;;;;;;77.72;30.83;;;;;;;;;;5066794;28;20128;-66
2022/01/25 16:16:14;;;;;;;80.57;31.30;;;;;;;;;;5068692;28;20426;-66